createdAt,value
2019-04-26T00:02:44.619Z,44.80
2019-04-26T00:07:44.338Z,45.10
2019-04-26T00:12:51.752Z,45.10
2019-04-26T00:17:55.195Z,44.90
2019-04-26T00:22:54.911Z,44.80
2019-04-26T00:27:54.570Z,44.80
2019-04-26T00:32:54.390Z,44.70
2019-04-26T00:37:54.102Z,44.80
2019-04-26T00:42:57.476Z,44.90
2019-04-26T00:47:57.651Z,45.20
2019-04-26T00:52:58.229Z,45.50
2019-04-26T00:57:58.252Z,45.80
2019-04-26T01:02:58.674Z,46.20
2019-04-26T01:07:58.706Z,45.60
2019-04-26T01:12:58.487Z,45.90
2019-04-26T01:17:58.279Z,45.00
2019-04-26T01:23:01.232Z,45.20
2019-04-26T01:28:01.724Z,46.30
2019-04-26T01:33:02.470Z,46.20
2019-04-26T01:38:04.062Z,45.40
2019-04-26T01:43:16.902Z,46.60
2019-04-26T01:48:43.004Z,46.10
2019-04-26T01:53:46.723Z,46.60
2019-04-26T01:58:48.520Z,47.40
2019-04-26T02:03:48.318Z,46.20
2019-04-26T02:08:48.063Z,46.50
2019-04-26T02:13:47.882Z,47.80
2019-04-26T02:18:47.674Z,47.40
2019-04-26T02:23:56.274Z,47.80
2019-04-26T02:28:56.314Z,47.10
2019-04-26T02:33:56.140Z,48.20
2019-04-26T02:38:57.143Z,47.60
2019-04-26T02:43:59.898Z,48.20
2019-04-26T02:49:31.257Z,48.30
2019-04-26T02:54:47.726Z,48.20
2019-04-26T02:59:49.240Z,48.30
2019-04-26T03:04:52.118Z,48.70
2019-04-26T03:09:53.511Z,48.80
2019-04-26T03:15:13.427Z,48.70
2019-04-26T03:20:07.302Z,49.10
2019-04-26T03:25:16.635Z,48.90
2019-04-26T03:30:27.380Z,49.20
2019-04-26T03:35:56.557Z,49.10
2019-04-26T03:41:04.224Z,49.90
2019-04-26T03:46:35.702Z,49.30
2019-04-26T03:52:35.338Z,49.90
2019-04-26T03:57:48.533Z,49.60
2019-04-26T04:03:14.500Z,49.70
2019-04-26T04:08:21.834Z,50.60
2019-04-26T04:13:59.713Z,50.40
2019-04-26T04:19:07.494Z,50.90
2019-04-26T04:24:11.711Z,51.30
2019-04-26T04:29:47.154Z,51.40
2019-04-26T04:34:48.148Z,51.40
2019-04-26T04:40:16.259Z,51.60
2019-04-26T04:46:01.203Z,51.30
2019-04-26T04:51:44.222Z,51.60
2019-04-26T04:57:15.099Z,51.70
2019-04-26T05:02:43.509Z,51.60
2019-04-26T05:08:06.580Z,51.70
2019-04-26T05:13:21.774Z,51.80
2019-04-26T05:18:32.465Z,51.90
2019-04-26T05:24:12.906Z,52.10
2019-04-26T05:29:52.108Z,52.00
2019-04-26T05:35:00.838Z,51.90
2019-04-26T05:40:29.590Z,52.10
2019-04-26T05:46:00.911Z,52.00
2019-04-26T05:51:33.786Z,52.10
2019-04-26T05:57:47.542Z,52.10
2019-04-26T06:03:18.787Z,51.80
2019-04-26T06:09:22.647Z,52.00
2019-04-26T06:14:59.043Z,52.10
2019-04-26T06:20:26.853Z,52.30
2019-04-26T06:25:38.562Z,52.50
2019-04-26T06:30:48.428Z,52.30
2019-04-26T06:35:50.676Z,52.50
2019-04-26T06:41:02.537Z,52.20
2019-04-26T06:46:34.334Z,52.20
2019-04-26T06:51:40.180Z,52.30
2019-04-26T06:57:28.718Z,52.20
2019-04-26T07:03:08.838Z,52.20
2019-04-26T07:08:32.559Z,52.40
2019-04-26T07:14:12.562Z,52.50
2019-04-26T07:19:20.808Z,52.80
2019-04-26T07:25:01.538Z,53.50
2019-04-26T07:30:41.886Z,53.50
2019-04-26T07:36:27.534Z,53.50
2019-04-26T07:41:57.726Z,53.70
2019-04-26T07:47:20.114Z,53.80
2019-04-26T07:53:00.727Z,53.80
2019-04-26T07:58:36.154Z,54.00
2019-04-26T08:03:49.338Z,53.80
2019-04-26T08:09:03.196Z,54.20
2019-04-26T08:14:19.204Z,54.00
2019-04-26T08:19:22.999Z,54.20
2019-04-26T08:24:28.285Z,53.80
2019-04-26T08:29:33.336Z,53.70
2019-04-26T08:34:36.010Z,53.50
2019-04-26T08:39:45.566Z,53.70
2019-04-26T08:44:52.675Z,53.70
2019-04-26T08:50:13.714Z,53.50
2019-04-26T08:55:16.498Z,52.80
2019-04-26T09:00:40.354Z,52.70
2019-04-26T09:06:06.151Z,52.80
2019-04-26T09:11:08.204Z,53.20
2019-04-26T09:16:14.191Z,52.90
2019-04-26T09:21:17.463Z,52.60
2019-04-26T09:26:20.908Z,52.20
2019-04-26T09:31:29.014Z,52.00
2019-04-26T09:36:28.743Z,52.30
2019-04-26T09:41:30.814Z,51.80
2019-04-26T09:46:38.122Z,51.60
2019-04-26T09:51:39.060Z,51.50
2019-04-26T09:56:40.697Z,51.30
2019-04-26T10:01:40.758Z,50.70
2019-04-26T10:06:40.818Z,50.70
2019-04-26T10:11:45.634Z,50.60
2019-04-26T10:17:07.587Z,51.10
2019-04-26T10:22:07.387Z,50.70
2019-04-26T10:27:07.100Z,50.20
2019-04-26T10:32:06.815Z,50.20
2019-04-26T10:37:07.908Z,50.00
2019-04-26T10:42:07.787Z,49.80
2019-04-26T10:47:07.526Z,49.60
2019-04-26T10:52:11.885Z,49.50
2019-04-26T10:57:31.274Z,49.50
2019-04-26T11:02:31.214Z,49.60
2019-04-26T11:07:31.010Z,49.60
2019-04-26T11:12:30.666Z,49.40
2019-04-26T11:17:30.358Z,49.50
2019-04-26T11:22:33.466Z,49.70
2019-04-26T11:27:31.814Z,49.80
2019-04-26T11:32:33.179Z,49.80
2019-04-26T11:37:33.159Z,49.40
2019-04-26T11:42:32.878Z,49.90
2019-04-26T11:47:32.514Z,50.10
2019-04-26T11:52:35.624Z,50.40
2019-04-26T11:57:33.718Z,50.50
2019-04-26T12:02:37.194Z,49.90
2019-04-26T12:07:41.467Z,49.70
2019-04-26T12:12:43.076Z,49.70
2019-04-26T12:17:42.867Z,49.60
2019-04-26T12:22:43.359Z,49.60
2019-04-26T12:27:44.254Z,49.40
2019-04-26T12:32:44.191Z,49.20
2019-04-26T12:37:43.955Z,49.20
2019-04-26T12:42:47.354Z,49.40
2019-04-26T12:47:48.777Z,49.60
2019-04-26T12:52:51.402Z,49.40
2019-04-26T12:57:50.850Z,49.40
2019-04-26T13:02:54.225Z,49.50
2019-04-26T13:07:53.387Z,49.60
2019-04-26T13:13:06.127Z,49.90
2019-04-26T13:18:07.315Z,49.70
2019-04-26T13:23:07.438Z,49.40
2019-04-26T13:28:07.094Z,49.50
2019-04-26T13:33:06.756Z,49.50
2019-04-26T13:38:08.710Z,49.80
2019-04-26T13:43:07.966Z,49.80
2019-04-26T13:48:26.862Z,49.80
2019-04-26T13:53:26.966Z,50.30
2019-04-26T13:58:27.079Z,50.50
2019-04-26T14:03:27.166Z,50.70
2019-04-26T14:08:28.083Z,50.90
2019-04-26T14:13:27.814Z,51.10
2019-04-26T14:18:27.840Z,51.10
2019-04-26T14:23:41.530Z,51.20
2019-04-26T14:28:42.140Z,51.30
2019-04-26T14:33:42.010Z,51.20
2019-04-26T14:38:41.678Z,51.20
2019-04-26T14:43:41.644Z,51.20
2019-04-26T14:48:44.646Z,51.20
2019-04-26T14:53:43.184Z,51.00
2019-04-26T14:58:42.831Z,51.20
2019-04-26T15:03:47.357Z,51.10
2019-04-26T15:08:48.686Z,50.80
2019-04-26T15:13:48.818Z,50.60
2019-04-26T15:18:48.590Z,50.20
2019-04-26T15:23:48.313Z,50.10
2019-04-26T15:28:50.517Z,49.40
2019-04-26T15:33:50.177Z,49.50
2019-04-26T15:38:50.738Z,49.80
2019-04-26T15:44:11.299Z,49.70
2019-04-26T15:49:36.523Z,49.80
2019-04-26T15:54:34.716Z,50.00
2019-04-26T15:59:34.375Z,50.70
2019-04-26T16:04:34.118Z,51.20
2019-04-26T16:09:33.842Z,51.80
2019-04-26T16:14:36.628Z,52.20
2019-04-26T16:19:36.105Z,52.50
2019-04-26T16:24:35.814Z,52.60
2019-04-26T16:30:06.602Z,52.80
2019-04-26T16:35:07.400Z,53.00
2019-04-26T16:40:07.774Z,53.40
2019-04-26T16:45:09.377Z,53.80
2019-04-26T16:50:09.284Z,54.00
2019-04-26T16:55:17.751Z,54.50
2019-04-26T17:00:15.793Z,55.00
2019-04-26T17:05:23.793Z,55.10
2019-04-26T17:10:16.736Z,55.50
2019-04-26T17:15:17.469Z,56.20
2019-04-26T17:20:17.863Z,56.60
2019-04-26T17:25:27.515Z,57.00
2019-04-26T17:30:27.356Z,57.30
2019-04-26T17:35:27.087Z,57.40
2019-04-26T17:40:30.213Z,57.50
2019-04-26T17:45:28.255Z,57.70
2019-04-26T17:50:27.894Z,57.80
2019-04-26T17:55:30.993Z,57.90
2019-04-26T18:00:37.177Z,57.70
2019-04-26T18:05:45.130Z,57.90
2019-04-26T18:10:35.582Z,57.60
2019-04-26T18:15:35.653Z,57.80
2019-04-26T18:21:00.402Z,57.90
2019-04-26T18:26:00.186Z,58.00
2019-04-26T18:30:59.930Z,58.00
2019-04-26T18:35:59.931Z,58.30
2019-04-26T18:41:01.347Z,58.20
2019-04-26T18:46:06.599Z,59.00
2019-04-26T18:51:07.580Z,59.50
2019-04-26T18:56:07.910Z,59.70
2019-04-26T19:01:09.203Z,60.10
2019-04-26T19:06:08.978Z,60.10
2019-04-26T19:11:11.608Z,60.50
2019-04-26T19:16:25.246Z,60.90
2019-04-26T19:21:38.979Z,60.90
2019-04-26T19:26:36.232Z,61.10
2019-04-26T19:31:35.975Z,61.30
2019-04-26T19:36:36.170Z,61.60
2019-04-26T19:41:35.928Z,61.90
2019-04-26T19:46:43.806Z,61.90
2019-04-26T19:52:11.994Z,62.20
2019-04-26T19:57:17.306Z,62.00
2019-04-26T20:02:17.038Z,63.10
2019-04-26T20:07:16.923Z,62.50
2019-04-26T20:12:17.151Z,62.70
2019-04-26T20:17:19.740Z,63.20
2019-04-26T20:22:22.134Z,63.20
2019-04-26T20:27:23.781Z,63.10
2019-04-26T20:32:34.438Z,63.50
2019-04-26T20:37:34.105Z,63.80
2019-04-26T20:42:34.155Z,64.10
2019-04-26T20:47:35.278Z,65.10
2019-04-26T20:52:34.978Z,64.40
2019-04-26T20:57:35.001Z,64.70
2019-04-26T21:02:34.738Z,64.80
2019-04-26T21:07:34.391Z,65.10
2019-04-26T21:12:34.618Z,65.20
2019-04-26T21:17:34.454Z,65.50
2019-04-26T21:22:34.262Z,65.70
2019-04-26T21:27:44.324Z,65.50
2019-04-26T21:32:56.035Z,65.80
2019-04-26T21:38:06.654Z,65.80
2019-04-26T21:43:06.390Z,65.70
2019-04-26T21:48:07.071Z,66.00
2019-04-26T21:53:07.785Z,66.10
2019-04-26T21:58:07.444Z,67.00
2019-04-26T22:03:07.877Z,66.30
2019-04-26T22:08:09.157Z,66.50
2019-04-26T22:13:18.507Z,66.30
2019-04-26T22:18:22.707Z,66.50
2019-04-26T22:23:43.537Z,66.50
2019-04-26T22:28:43.507Z,66.50
2019-04-26T22:33:44.578Z,66.50
2019-04-26T22:38:44.394Z,66.80
2019-04-26T22:44:08.382Z,66.90
2019-04-26T22:49:08.752Z,66.90
2019-04-26T22:54:08.758Z,67.00
2019-04-26T22:59:08.427Z,67.30
2019-04-26T23:04:08.502Z,67.30
2019-04-26T23:09:11.718Z,67.30
2019-04-26T23:14:19.225Z,67.10
2019-04-26T23:19:27.307Z,67.30
2019-04-26T23:24:26.985Z,67.20
2019-04-26T23:29:26.622Z,67.50
2019-04-26T23:34:26.290Z,67.40
2019-04-26T23:39:26.378Z,67.30
2019-04-26T23:44:26.049Z,67.50
2019-04-26T23:49:25.676Z,67.40
2019-04-26T23:54:28.121Z,67.60
2019-04-26T23:59:26.684Z,67.70
